createdAt,value
2022-09-15T00:01:57.686Z,17.80
2022-09-15T00:04:24.159Z,21.65
2022-09-15T00:06:50.659Z,23.10
2022-09-15T00:09:17.128Z,19.23
2022-09-15T00:11:43.724Z,19.10
2022-09-15T00:14:10.243Z,18.98
2022-09-15T00:16:37.123Z,16.77
2022-09-15T00:19:04.350Z,21.23
2022-09-15T00:21:34.158Z,24.43
2022-09-15T00:24:03.045Z,22.95
2022-09-15T00:26:31.706Z,17.42
2022-09-15T00:28:59.747Z,16.73
2022-09-15T00:31:28.516Z,15.07
2022-09-15T00:33:57.147Z,16.13
2022-09-15T00:36:24.876Z,19.63
2022-09-15T00:38:51.691Z,17.17
2022-09-15T00:41:20.986Z,17.48
2022-09-15T00:43:55.181Z,19.08
2022-09-15T00:46:24.844Z,18.80
2022-09-15T00:48:57.588Z,18.75
2022-09-15T00:51:51.050Z,18.77
2022-09-15T00:54:22.624Z,14.38
2022-09-15T00:56:53.169Z,17.80
2022-09-15T00:59:24.363Z,16.77
2022-09-15T01:02:01.128Z,18.92
2022-09-15T01:04:27.683Z,17.33
2022-09-15T01:07:00.298Z,19.23
2022-09-15T01:09:36.363Z,18.73
2022-09-15T01:12:03.742Z,19.47
2022-09-15T01:14:30.236Z,18.50
2022-09-15T01:17:19.010Z,21.45
2022-09-15T01:20:04.082Z,21.10
2022-09-15T01:22:41.517Z,17.27
2022-09-15T01:26:05.050Z,20.83
2022-09-15T01:28:58.876Z,21.70
2022-09-15T01:32:05.070Z,23.15
2022-09-15T01:34:40.465Z,20.90
2022-09-15T01:37:15.334Z,25.90
2022-09-15T01:39:45.005Z,27.10
2022-09-15T01:42:15.338Z,20.55
2022-09-15T01:45:02.520Z,25.30
2022-09-15T01:47:30.344Z,23.48
2022-09-15T01:50:02.977Z,23.80
2022-09-15T01:52:30.708Z,21.50
2022-09-15T01:55:02.262Z,25.70
2022-09-15T01:57:28.853Z,25.10
2022-09-15T01:59:56.415Z,23.92
2022-09-15T02:02:33.343Z,29.48
2022-09-15T02:05:06.208Z,34.47
2022-09-15T02:07:35.459Z,32.83
2022-09-15T02:10:13.555Z,35.05
2022-09-15T02:12:54.578Z,30.15
2022-09-15T02:15:33.403Z,32.15
2022-09-15T02:18:02.608Z,28.33
2022-09-15T02:20:33.088Z,31.55
2022-09-15T02:23:08.452Z,27.52
2022-09-15T02:25:41.416Z,29.52
2022-09-15T02:28:11.624Z,26.73
2022-09-15T02:30:42.003Z,29.40
2022-09-15T02:33:14.090Z,29.23
2022-09-15T02:35:42.254Z,29.67
2022-09-15T02:38:10.597Z,26.20
2022-09-15T02:40:41.236Z,26.80
2022-09-15T02:43:12.408Z,27.77
2022-09-15T02:45:39.430Z,24.95
2022-09-15T02:48:06.309Z,24.17
2022-09-15T02:50:32.782Z,27.85
2022-09-15T02:52:59.270Z,26.63
2022-09-15T02:55:29.022Z,23.20
2022-09-15T02:57:59.265Z,24.63
2022-09-15T03:00:27.096Z,24.30
2022-09-15T03:02:54.814Z,22.52
2022-09-15T03:05:24.949Z,24.08
2022-09-15T03:07:52.199Z,27.30
2022-09-15T03:10:19.112Z,20.55
2022-09-15T03:12:48.354Z,23.58
2022-09-15T03:15:17.660Z,22.50
2022-09-15T03:17:46.320Z,22.73
2022-09-15T03:20:16.941Z,22.77
2022-09-15T03:22:43.964Z,26.63
2022-09-15T03:25:11.275Z,24.38
2022-09-15T03:27:38.370Z,23.90
2022-09-15T03:30:06.707Z,24.33
2022-09-15T03:32:33.257Z,17.77
2022-09-15T03:34:59.723Z,26.20
2022-09-15T03:37:26.652Z,20.90
2022-09-15T03:39:53.212Z,23.92
2022-09-15T03:42:20.345Z,20.05
2022-09-15T03:44:46.887Z,19.57
2022-09-15T03:47:13.501Z,23.88
2022-09-15T03:49:39.979Z,17.77
2022-09-15T03:52:06.429Z,17.25
2022-09-15T03:54:32.915Z,14.55
2022-09-15T03:56:59.462Z,21.17
2022-09-15T03:59:25.970Z,18.63
2022-09-15T04:01:52.665Z,15.20
2022-09-15T04:04:19.242Z,15.23
2022-09-15T04:06:45.771Z,14.32
2022-09-15T04:09:12.278Z,13.33
2022-09-15T04:11:39.647Z,11.60
2022-09-15T04:14:06.339Z,13.77
2022-09-15T04:16:33.804Z,10.85
2022-09-15T04:19:00.439Z,12.52
2022-09-15T04:21:26.975Z,10.77
2022-09-15T04:23:54.631Z,13.90
2022-09-15T04:26:34.169Z,11.63
2022-09-15T04:29:04.619Z,10.98
2022-09-15T04:31:32.151Z,10.10
2022-09-15T04:33:59.390Z,10.27
2022-09-15T04:36:28.250Z,10.18
2022-09-15T04:38:55.371Z,11.00
2022-09-15T04:41:22.533Z,9.77
2022-09-15T04:43:49.565Z,10.57
2022-09-15T04:46:16.906Z,14.07
2022-09-15T04:48:45.501Z,10.95
2022-09-15T04:51:14.896Z,12.40
2022-09-15T04:53:41.995Z,11.35
2022-09-15T04:56:11.987Z,15.25
2022-09-15T04:58:46.558Z,12.20
2022-09-15T05:01:15.971Z,13.43
2022-09-15T05:03:43.046Z,11.40
2022-09-15T05:06:12.331Z,13.63
2022-09-15T05:08:39.398Z,12.43
2022-09-15T05:11:09.019Z,12.93
2022-09-15T05:13:36.844Z,11.45
2022-09-15T05:16:05.885Z,14.52
2022-09-15T05:18:33.183Z,9.13
2022-09-15T05:21:00.957Z,8.93
2022-09-15T05:23:28.475Z,9.60
2022-09-15T05:25:59.340Z,10.18
2022-09-15T05:28:26.129Z,12.50
2022-09-15T05:30:54.281Z,12.85
2022-09-15T05:33:22.351Z,13.50
2022-09-15T05:35:52.193Z,8.93
2022-09-15T05:38:18.774Z,12.77
2022-09-15T05:40:45.488Z,10.68
2022-09-15T05:43:12.078Z,14.20
2022-09-15T05:45:38.532Z,9.50
2022-09-15T05:48:05.111Z,11.20
2022-09-15T05:50:31.825Z,10.98
2022-09-15T05:52:58.272Z,8.98
2022-09-15T05:55:24.821Z,9.82
2022-09-15T05:57:51.325Z,9.30
2022-09-15T06:00:19.003Z,9.20
2022-09-15T06:02:45.517Z,9.82
2022-09-15T06:05:12.175Z,12.40
2022-09-15T06:07:39.217Z,9.95
2022-09-15T06:10:06.526Z,10.73
2022-09-15T06:12:33.004Z,8.67
2022-09-15T06:14:59.821Z,8.73
2022-09-15T06:17:26.486Z,9.68
2022-09-15T06:19:53.119Z,9.43
2022-09-15T06:22:19.600Z,9.07
2022-09-15T06:24:46.151Z,10.13
2022-09-15T06:27:12.660Z,9.70
2022-09-15T06:29:39.139Z,7.05
2022-09-15T06:32:05.780Z,9.35
2022-09-15T06:34:32.891Z,9.63
2022-09-15T06:36:59.934Z,8.30
2022-09-15T06:39:27.179Z,8.10
2022-09-15T06:42:02.202Z,9.35
2022-09-15T06:44:29.788Z,10.30
2022-09-15T06:46:56.252Z,8.35
2022-09-15T06:49:22.950Z,15.40
2022-09-15T06:51:49.524Z,11.07
2022-09-15T06:54:16.224Z,6.47
2022-09-15T06:56:43.447Z,6.93
2022-09-15T06:59:15.345Z,8.85
2022-09-15T07:01:42.581Z,7.33
2022-09-15T07:04:09.987Z,7.53
2022-09-15T07:06:38.619Z,7.78
2022-09-15T07:09:06.006Z,8.25
2022-09-15T07:11:33.132Z,7.57
2022-09-15T07:13:59.650Z,7.23
2022-09-15T07:16:26.268Z,10.20
2022-09-15T07:18:56.057Z,10.05
2022-09-15T07:21:23.353Z,7.18
2022-09-15T07:23:50.406Z,8.75
2022-09-15T07:26:28.375Z,4.73
2022-09-15T07:28:57.349Z,8.93
2022-09-15T07:31:26.029Z,8.13
2022-09-15T07:33:53.242Z,7.00
2022-09-15T07:36:19.994Z,8.43
2022-09-15T07:38:48.730Z,5.97
2022-09-15T07:41:23.668Z,8.63
2022-09-15T07:43:52.236Z,5.55
2022-09-15T07:46:20.367Z,5.78
2022-09-15T07:48:48.301Z,7.93
2022-09-15T07:51:15.943Z,6.07
2022-09-15T07:53:43.907Z,6.68
2022-09-15T07:56:10.662Z,5.63
2022-09-15T07:58:37.107Z,6.15
2022-09-15T08:01:06.066Z,7.93
2022-09-15T08:03:32.921Z,7.67
2022-09-15T08:06:00.282Z,10.40
2022-09-15T08:08:26.952Z,6.57
2022-09-15T08:10:53.763Z,7.70
2022-09-15T08:13:20.383Z,8.05
2022-09-15T08:15:47.932Z,6.40
2022-09-15T08:18:15.407Z,6.18
2022-09-15T08:20:42.631Z,5.05
2022-09-15T08:23:11.063Z,8.77
2022-09-15T08:25:40.510Z,5.82
2022-09-15T08:28:07.157Z,6.30
2022-09-15T08:30:33.779Z,5.60
2022-09-15T08:33:00.238Z,8.57
2022-09-15T08:35:26.775Z,7.60
2022-09-15T08:37:55.022Z,5.35
2022-09-15T08:40:27.454Z,7.20
2022-09-15T08:42:57.980Z,7.13
2022-09-15T08:45:32.532Z,6.50
2022-09-15T08:48:03.305Z,5.55
2022-09-15T08:50:35.804Z,5.30
2022-09-15T08:53:11.911Z,6.33
2022-09-15T08:55:55.066Z,8.05
2022-09-15T08:58:37.663Z,8.63
2022-09-15T09:01:10.456Z,8.00
2022-09-15T09:03:49.336Z,9.27
2022-09-15T09:06:48.079Z,6.00
2022-09-15T09:09:27.895Z,11.75
2022-09-15T09:12:13.229Z,8.27
2022-09-15T09:15:07.317Z,7.60
2022-09-15T09:18:04.126Z,9.50
2022-09-15T09:20:52.657Z,6.73
2022-09-15T09:23:23.927Z,8.32
2022-09-15T09:25:52.158Z,8.48
2022-09-15T09:28:32.210Z,6.90
2022-09-15T09:31:08.295Z,4.75
2022-09-15T09:33:47.611Z,5.80
2022-09-15T09:36:14.698Z,6.53
2022-09-15T09:38:43.932Z,8.50
2022-09-15T09:41:17.122Z,5.95
2022-09-15T09:43:47.396Z,6.75
2022-09-15T09:46:16.649Z,5.93
2022-09-15T09:48:47.631Z,5.88
2022-09-15T09:51:32.037Z,8.93
2022-09-15T09:54:20.808Z,3.47
2022-09-15T09:56:53.633Z,4.45
2022-09-15T09:59:40.395Z,5.73
2022-09-15T10:02:18.917Z,4.45
2022-09-15T10:04:48.330Z,6.43
2022-09-15T10:07:18.615Z,3.00
2022-09-15T10:09:52.532Z,11.82
2022-09-15T10:12:39.748Z,5.17
2022-09-15T10:15:20.211Z,7.43
2022-09-15T10:17:49.607Z,3.85
2022-09-15T10:20:28.227Z,5.22
2022-09-15T10:23:19.089Z,8.77
2022-09-15T10:26:01.342Z,3.43
2022-09-15T10:28:28.626Z,7.60
2022-09-15T10:31:15.761Z,4.40
2022-09-15T10:33:47.701Z,4.10
2022-09-15T10:36:22.492Z,5.28
2022-09-15T10:38:54.723Z,7.20
2022-09-15T10:41:37.674Z,3.75
2022-09-15T10:44:38.311Z,4.57
2022-09-15T10:47:07.603Z,5.03
2022-09-15T10:49:52.100Z,3.08
2022-09-15T10:52:25.719Z,11.30
2022-09-15T10:55:15.620Z,6.88
2022-09-15T10:58:06.236Z,6.35
2022-09-15T11:01:11.327Z,6.47
2022-09-15T11:04:15.357Z,8.45
2022-09-15T11:06:50.501Z,4.70
2022-09-15T11:09:26.229Z,5.43
2022-09-15T11:12:04.966Z,3.30
2022-09-15T11:14:56.457Z,6.28
2022-09-15T11:17:42.505Z,6.22
2022-09-15T11:20:32.580Z,4.40
2022-09-15T11:23:11.511Z,3.80
2022-09-15T11:25:46.799Z,3.97
2022-09-15T11:28:32.980Z,3.55
2022-09-15T11:31:02.457Z,7.37
2022-09-15T11:33:45.210Z,5.45
2022-09-15T11:36:23.004Z,7.53
2022-09-15T11:39:13.170Z,7.75
2022-09-15T11:41:48.459Z,7.15
2022-09-15T11:44:16.638Z,8.13
2022-09-15T11:47:02.679Z,4.75
2022-09-15T11:49:44.944Z,4.10
2022-09-15T11:52:24.810Z,6.05
2022-09-15T11:55:02.727Z,5.63
2022-09-15T11:57:38.980Z,5.80
2022-09-15T12:00:13.177Z,8.55
2022-09-15T12:02:49.187Z,3.53
2022-09-15T12:05:22.218Z,8.73
2022-09-15T12:07:56.040Z,5.00
2022-09-15T12:10:39.869Z,7.90
2022-09-15T12:13:10.130Z,4.72
2022-09-15T12:15:37.746Z,13.48
2022-09-15T12:18:43.861Z,4.00
2022-09-15T12:21:19.693Z,5.75
2022-09-15T12:24:02.949Z,6.40
2022-09-15T12:26:33.139Z,4.03
2022-09-15T12:29:04.932Z,4.45
2022-09-15T12:31:31.477Z,5.18
2022-09-15T12:33:57.926Z,4.65
2022-09-15T12:36:51.316Z,5.97
2022-09-15T12:39:32.296Z,6.13
2022-09-15T12:42:10.935Z,6.82
2022-09-15T12:44:47.965Z,6.22
2022-09-15T12:47:29.641Z,3.03
2022-09-15T12:50:04.878Z,6.73
2022-09-15T12:52:31.979Z,5.60
2022-09-15T12:55:02.665Z,8.57
2022-09-15T12:57:33.529Z,7.40
2022-09-15T13:00:35.587Z,5.05
2022-09-15T13:03:03.927Z,5.87
2022-09-15T13:05:42.379Z,6.85
2022-09-15T13:08:24.818Z,4.25
2022-09-15T13:11:14.137Z,5.07
2022-09-15T13:14:14.857Z,4.80
2022-09-15T13:16:41.419Z,8.50
2022-09-15T13:19:24.183Z,6.28
2022-09-15T13:22:12.213Z,8.20
2022-09-15T13:25:01.504Z,4.28
2022-09-15T13:27:36.359Z,6.45
2022-09-15T13:30:24.342Z,5.53
2022-09-15T13:33:03.671Z,8.52
2022-09-15T13:35:56.511Z,4.65
2022-09-15T13:38:47.408Z,5.78
2022-09-15T13:42:04.537Z,5.28
2022-09-15T13:44:54.501Z,5.20
2022-09-15T13:47:38.262Z,6.65
2022-09-15T13:50:04.636Z,5.75
2022-09-15T13:52:58.044Z,4.10
2022-09-15T13:55:28.033Z,7.18
2022-09-15T14:00:55.036Z,8.13
2022-09-15T14:03:37.106Z,5.15
2022-09-15T14:06:22.340Z,5.05
2022-09-15T14:08:53.711Z,2.65
2022-09-15T14:11:30.727Z,3.40
2022-09-15T14:14:00.738Z,3.20
2022-09-15T14:16:27.914Z,4.57
2022-09-15T14:18:57.693Z,7.13
2022-09-15T14:21:29.507Z,2.85
2022-09-15T14:23:58.599Z,4.83
2022-09-15T14:26:29.086Z,5.97
2022-09-15T14:29:06.788Z,6.00
2022-09-15T14:31:39.065Z,3.58
2022-09-15T14:34:09.759Z,7.78
2022-09-15T14:36:36.322Z,3.23
2022-09-15T14:39:12.805Z,4.03
2022-09-15T14:41:40.192Z,6.28
2022-09-15T14:45:54.494Z,3.90
2022-09-15T14:47:20.816Z,3.67
2022-09-15T14:49:47.749Z,5.03
2022-09-15T14:52:31.890Z,4.50
2022-09-15T14:55:02.594Z,1.60
2022-09-15T14:57:32.206Z,3.75
2022-09-15T15:00:07.099Z,4.20
2022-09-15T15:02:33.597Z,4.37
2022-09-15T15:05:31.974Z,5.45
2022-09-15T15:08:03.980Z,5.72
2022-09-15T15:10:35.680Z,6.55
2022-09-15T15:13:07.990Z,4.38
2022-09-15T15:15:37.958Z,7.27
2022-09-15T15:18:39.047Z,6.13
2022-09-15T15:21:26.654Z,4.97
2022-09-15T15:23:53.875Z,7.07
2022-09-15T15:26:28.474Z,6.43
2022-09-15T15:28:54.999Z,4.80
2022-09-15T15:31:25.071Z,4.88
2022-09-15T15:33:59.296Z,6.25
2022-09-15T15:36:28.546Z,4.05
2022-09-15T15:39:00.876Z,6.10
2022-09-15T15:41:29.611Z,7.90
2022-09-15T15:44:03.509Z,7.65
2022-09-15T15:46:53.435Z,3.67
2022-09-15T15:49:25.325Z,4.75
2022-09-15T15:51:55.269Z,6.20
2022-09-15T15:54:22.865Z,7.20
2022-09-15T15:56:49.717Z,6.40
2022-09-15T15:59:17.377Z,7.07
2022-09-15T16:01:45.108Z,9.25
2022-09-15T16:04:12.222Z,6.63
2022-09-15T16:06:39.497Z,5.30
2022-09-15T16:09:06.185Z,4.90
2022-09-15T16:11:32.831Z,5.53
2022-09-15T16:13:59.718Z,2.63
2022-09-15T16:16:27.586Z,5.53
2022-09-15T16:18:54.521Z,6.27
2022-09-15T16:21:28.959Z,5.25
2022-09-15T16:23:55.521Z,4.45
2022-09-15T16:26:24.149Z,4.35
2022-09-15T16:28:51.453Z,3.20
2022-09-15T16:31:17.974Z,4.57
2022-09-15T16:33:44.461Z,4.07
2022-09-15T16:36:18.097Z,5.15
2022-09-15T16:38:45.114Z,5.32
2022-09-15T16:41:17.564Z,4.63
2022-09-15T16:43:45.509Z,5.37
2022-09-15T16:46:13.418Z,4.88
2022-09-15T16:48:42.691Z,6.30
2022-09-15T16:51:31.636Z,5.43
2022-09-15T16:54:01.247Z,5.68
2022-09-15T16:56:28.502Z,8.63
2022-09-15T16:59:00.133Z,7.10
2022-09-15T17:01:27.466Z,5.10
2022-09-15T17:03:54.152Z,7.10
2022-09-15T17:06:22.081Z,6.88
2022-09-15T17:08:48.975Z,4.88
2022-09-15T17:11:18.478Z,6.30
2022-09-15T17:13:47.158Z,5.70
2022-09-15T17:16:15.737Z,4.70
2022-09-15T17:18:42.296Z,9.52
2022-09-15T17:21:12.369Z,6.07
2022-09-15T17:23:45.792Z,8.73
2022-09-15T17:26:17.271Z,6.07
2022-09-15T17:28:43.724Z,6.07
2022-09-15T17:31:19.387Z,3.88
2022-09-15T17:33:47.137Z,3.45
2022-09-15T17:36:13.626Z,7.70
2022-09-15T17:38:41.153Z,7.00
2022-09-15T17:41:16.487Z,7.37
2022-09-15T17:43:43.056Z,5.38
2022-09-15T17:46:09.668Z,8.65
2022-09-15T17:48:39.215Z,7.10
2022-09-15T17:51:07.248Z,7.80
2022-09-15T17:53:34.201Z,6.27
2022-09-15T17:56:00.958Z,7.68
2022-09-15T17:58:29.944Z,7.55
2022-09-15T18:00:57.497Z,5.30
2022-09-15T18:03:27.966Z,9.15
2022-09-15T18:05:59.200Z,9.20
2022-09-15T18:08:26.791Z,4.38
2022-09-15T18:10:53.826Z,7.40
2022-09-15T18:13:23.473Z,6.22
2022-09-15T18:15:50.668Z,8.27
2022-09-15T18:18:20.016Z,4.97
2022-09-15T18:20:46.922Z,7.25
2022-09-15T18:23:15.588Z,6.20
2022-09-15T18:25:43.105Z,6.13
2022-09-15T18:28:10.576Z,5.38
2022-09-15T18:30:41.811Z,4.07
2022-09-15T18:33:14.043Z,5.07
2022-09-15T18:35:41.315Z,5.80
2022-09-15T18:38:08.316Z,7.77
2022-09-15T18:40:34.818Z,3.95
2022-09-15T18:43:09.045Z,6.50
2022-09-15T18:45:35.580Z,9.93
2022-09-15T18:48:11.956Z,6.10
2022-09-15T18:50:40.313Z,8.85
2022-09-15T18:53:09.817Z,4.57
2022-09-15T18:55:36.414Z,6.30
2022-09-15T18:58:02.970Z,5.28
2022-09-15T19:00:29.887Z,8.47
2022-09-15T19:03:00.762Z,9.45
2022-09-15T19:05:28.983Z,4.78
2022-09-15T19:07:55.635Z,7.45
2022-09-15T19:10:23.078Z,4.97
2022-09-15T19:12:49.615Z,7.67
2022-09-15T19:15:16.713Z,4.63
2022-09-15T19:17:44.022Z,4.35
2022-09-15T19:20:14.226Z,3.63
2022-09-15T19:22:41.698Z,4.40
2022-09-15T19:25:09.745Z,6.07
2022-09-15T19:27:37.953Z,6.97
2022-09-15T19:30:05.649Z,10.18
2022-09-15T19:32:33.478Z,7.07
2022-09-15T19:35:00.009Z,6.30
2022-09-15T19:37:26.639Z,6.57
2022-09-15T19:39:53.408Z,6.20
2022-09-15T19:42:20.100Z,6.63
2022-09-15T19:44:47.918Z,6.82
2022-09-15T19:47:14.816Z,3.78
2022-09-15T19:49:41.315Z,5.00
2022-09-15T19:52:07.940Z,6.68
2022-09-15T19:54:34.662Z,5.10
2022-09-15T19:57:01.842Z,5.97
2022-09-15T19:59:31.396Z,4.63
2022-09-15T20:01:58.694Z,5.87
2022-09-15T20:07:09.243Z,8.02
2022-09-15T20:09:36.345Z,5.50
2022-09-15T20:12:03.430Z,4.78
2022-09-15T20:14:31.398Z,6.23
2022-09-15T20:17:00.972Z,5.43
2022-09-15T20:19:28.112Z,6.20
2022-09-15T20:21:54.598Z,6.32
2022-09-15T20:24:21.635Z,4.70
2022-09-15T20:26:48.457Z,5.97
2022-09-15T20:29:15.757Z,6.63
2022-09-15T20:31:42.547Z,4.75
2022-09-15T20:34:09.336Z,3.13
2022-09-15T20:36:38.813Z,5.55
2022-09-15T20:39:09.293Z,5.27
2022-09-15T20:41:36.063Z,5.47
2022-09-15T20:44:02.955Z,5.18
2022-09-15T20:46:31.254Z,4.60
2022-09-15T20:48:57.754Z,5.00
2022-09-15T20:51:26.780Z,5.57
2022-09-15T20:53:55.502Z,6.78
2022-09-15T20:56:25.487Z,4.60
2022-09-15T20:58:57.152Z,6.55
2022-09-15T21:01:43.577Z,5.70
2022-09-15T21:04:10.639Z,4.90
2022-09-15T21:06:37.353Z,5.68
2022-09-15T21:09:05.306Z,5.95
2022-09-15T21:11:31.881Z,4.30
2022-09-15T21:13:58.871Z,6.68
2022-09-15T21:16:27.498Z,5.83
2022-09-15T21:18:55.418Z,5.68
2022-09-15T21:21:29.839Z,5.47
2022-09-15T21:24:01.787Z,5.15
2022-09-15T21:26:30.466Z,6.30
2022-09-15T21:28:57.542Z,7.13
2022-09-15T21:31:26.242Z,4.85
2022-09-15T21:33:54.138Z,4.40
2022-09-15T21:36:23.235Z,6.03
2022-09-15T21:38:51.853Z,7.35
2022-09-15T21:41:22.950Z,5.17
2022-09-15T21:43:54.957Z,5.85
2022-09-15T21:46:24.352Z,6.38
2022-09-15T21:48:50.881Z,5.38
2022-09-15T21:51:23.535Z,3.38
2022-09-15T21:53:52.241Z,4.33
2022-09-15T21:56:19.059Z,5.68
2022-09-15T21:58:45.622Z,4.05
2022-09-15T22:01:23.723Z,4.35
2022-09-15T22:03:52.980Z,5.20
2022-09-15T22:06:21.569Z,5.60
2022-09-15T22:08:48.778Z,8.05
2022-09-15T22:11:15.326Z,3.38
2022-09-15T22:13:44.611Z,7.35
2022-09-15T22:16:14.346Z,8.68
2022-09-15T22:18:41.874Z,5.70
2022-09-15T22:21:11.326Z,6.25
2022-09-15T22:23:38.703Z,5.95
2022-09-15T22:26:08.095Z,8.85
2022-09-15T22:28:34.987Z,4.70
2022-09-15T22:31:04.615Z,3.90
2022-09-15T22:33:31.456Z,3.65
2022-09-15T22:35:58.692Z,4.43
2022-09-15T22:38:27.266Z,14.45
2022-09-15T22:40:53.786Z,5.00
2022-09-15T22:43:20.306Z,2.80
2022-09-15T22:45:47.036Z,7.25
2022-09-15T22:48:13.709Z,7.43
2022-09-15T22:50:40.199Z,6.40
2022-09-15T22:53:06.733Z,5.43
2022-09-15T22:55:33.224Z,5.27
2022-09-15T22:57:59.701Z,8.70
2022-09-15T23:00:27.137Z,2.03
2022-09-15T23:02:53.990Z,3.53
2022-09-15T23:05:20.512Z,2.97
2022-09-15T23:07:47.110Z,6.70
2022-09-15T23:10:13.588Z,6.60
2022-09-15T23:12:40.038Z,1.85
2022-09-15T23:15:07.752Z,4.68
2022-09-15T23:17:34.505Z,2.47
2022-09-15T23:20:01.440Z,2.93
2022-09-15T23:22:27.972Z,2.92
2022-09-15T23:24:54.425Z,4.07
2022-09-15T23:27:20.963Z,3.17
2022-09-15T23:29:47.538Z,3.72
2022-09-15T23:32:14.055Z,2.50
2022-09-15T23:34:40.518Z,2.85
2022-09-15T23:37:07.044Z,3.88
2022-09-15T23:39:33.531Z,4.82
2022-09-15T23:42:01.326Z,8.55
2022-09-15T23:44:27.812Z,6.10
2022-09-15T23:46:54.341Z,2.35
2022-09-15T23:49:20.884Z,4.93
2022-09-15T23:51:47.381Z,4.18
2022-09-15T23:54:14.025Z,3.42
2022-09-15T23:56:40.948Z,3.70
2022-09-15T23:59:07.455Z,4.22
